createdAt,value
2022-12-03T00:00:17.291Z,5.20
2022-12-03T00:02:44.038Z,5.00
2022-12-03T00:05:11.146Z,4.90
2022-12-03T00:07:37.970Z,4.90
2022-12-03T00:10:05.901Z,5.20
2022-12-03T00:12:32.585Z,5.10
2022-12-03T00:14:59.241Z,5.00
2022-12-03T00:17:25.901Z,5.00
2022-12-03T00:19:52.560Z,5.30
2022-12-03T00:22:19.234Z,5.40
2022-12-03T00:24:45.882Z,5.00
2022-12-03T00:27:12.547Z,5.20
2022-12-03T00:29:39.319Z,5.30
2022-12-03T00:32:06.156Z,5.10
2022-12-03T00:34:32.820Z,5.20
2022-12-03T00:36:59.471Z,4.80
2022-12-03T00:39:26.204Z,4.90
2022-12-03T00:41:52.856Z,5.00
2022-12-03T00:44:19.525Z,5.10
2022-12-03T00:46:46.283Z,4.80
2022-12-03T00:49:13.117Z,4.90
2022-12-03T00:51:39.765Z,4.90
2022-12-03T00:54:06.427Z,5.00
2022-12-03T00:56:33.136Z,4.80
2022-12-03T00:58:59.800Z,4.80
2022-12-03T01:01:26.465Z,4.60
2022-12-03T01:03:53.144Z,4.80
2022-12-03T01:06:19.820Z,5.10
2022-12-03T01:08:46.486Z,4.80
2022-12-03T01:11:31.814Z,4.50
2022-12-03T01:13:58.480Z,4.90
2022-12-03T01:16:25.215Z,4.70
2022-12-03T01:18:55.127Z,4.90
2022-12-03T01:21:21.774Z,4.90
2022-12-03T01:23:48.604Z,4.60
2022-12-03T01:26:15.244Z,4.50
2022-12-03T01:28:42.121Z,4.40
2022-12-03T01:31:27.412Z,5.00
2022-12-03T01:33:54.234Z,4.50
2022-12-03T01:36:21.025Z,4.60
2022-12-03T01:38:48.814Z,4.60
2022-12-03T01:41:17.683Z,5.20
2022-12-03T01:43:44.661Z,5.20
2022-12-03T01:46:16.825Z,5.20
2022-12-03T01:48:43.836Z,5.10
2022-12-03T01:51:10.741Z,4.70
2022-12-03T01:53:37.547Z,4.80
2022-12-03T01:56:04.327Z,4.20
2022-12-03T01:58:31.287Z,4.40
2022-12-03T02:00:59.089Z,5.10
2022-12-03T02:03:26.234Z,4.60
2022-12-03T02:05:53.142Z,4.20
2022-12-03T02:08:30.854Z,3.60
2022-12-03T02:10:59.009Z,3.00
2022-12-03T02:13:25.736Z,3.00
2022-12-03T02:15:52.532Z,3.00
2022-12-03T02:18:19.510Z,3.20
2022-12-03T02:21:18.454Z,3.10
2022-12-03T02:24:19.561Z,3.20
2022-12-03T02:26:46.391Z,3.40
2022-12-03T02:29:13.101Z,3.80
2022-12-03T02:31:39.882Z,3.30
2022-12-03T02:34:07.390Z,3.50
2022-12-03T02:36:35.962Z,3.60
2022-12-03T02:39:09.248Z,4.20
2022-12-03T02:42:00.951Z,3.90
2022-12-03T02:45:05.421Z,4.30
2022-12-03T02:47:54.339Z,4.10
2022-12-03T02:50:28.673Z,4.00
2022-12-03T02:53:09.712Z,4.20
2022-12-03T02:58:28.383Z,3.90
2022-12-03T03:04:02.702Z,4.00
2022-12-03T03:06:43.955Z,4.50
2022-12-03T03:09:12.655Z,4.50
2022-12-03T03:12:00.102Z,4.20
2022-12-03T03:14:28.109Z,4.40
2022-12-03T03:17:20.274Z,4.80
2022-12-03T03:19:48.417Z,4.60
2022-12-03T03:22:17.421Z,4.80
2022-12-03T03:24:46.277Z,4.60
2022-12-03T03:27:12.993Z,4.90
2022-12-03T03:29:42.561Z,4.60
2022-12-03T03:32:09.406Z,4.80
2022-12-03T03:34:36.101Z,4.90
2022-12-03T03:37:02.754Z,4.50
2022-12-03T03:39:29.456Z,3.80
2022-12-03T03:41:56.115Z,3.90
2022-12-03T03:44:22.829Z,3.70
2022-12-03T03:46:49.502Z,3.60
2022-12-03T03:49:16.261Z,4.00
2022-12-03T03:51:43.066Z,4.10
2022-12-03T03:54:09.737Z,4.40
2022-12-03T03:56:36.826Z,4.10
2022-12-03T03:59:03.761Z,4.20
2022-12-03T04:01:30.981Z,3.80
2022-12-03T04:03:59.529Z,3.50
2022-12-03T04:06:27.146Z,3.50
2022-12-03T04:08:54.008Z,3.70
2022-12-03T04:11:39.143Z,4.00
2022-12-03T04:14:05.818Z,3.70
2022-12-03T04:16:32.581Z,3.80
2022-12-03T04:18:59.288Z,3.90
2022-12-03T04:21:44.503Z,4.00
2022-12-03T04:24:16.745Z,4.20
2022-12-03T04:27:06.125Z,4.40
2022-12-03T04:29:34.670Z,3.90
2022-12-03T04:32:41.642Z,3.90
2022-12-03T04:35:40.437Z,4.00
2022-12-03T04:38:53.015Z,4.10
2022-12-03T04:41:19.685Z,4.10
2022-12-03T04:44:05.133Z,4.10
2022-12-03T04:46:31.955Z,3.80
2022-12-03T04:48:58.686Z,3.90
2022-12-03T04:51:25.352Z,3.80
2022-12-03T04:53:52.049Z,3.80
2022-12-03T04:56:18.715Z,3.90
2022-12-03T04:58:45.386Z,4.00
2022-12-03T05:01:12.101Z,4.10
2022-12-03T05:03:39.664Z,4.20
2022-12-03T05:06:06.577Z,4.30
2022-12-03T05:08:33.287Z,4.70
2022-12-03T05:10:59.942Z,4.80
2022-12-03T05:13:26.616Z,4.70
2022-12-03T05:15:53.266Z,4.80
2022-12-03T05:18:19.945Z,4.70
2022-12-03T05:20:52.944Z,4.50
2022-12-03T05:23:20.537Z,4.90
2022-12-03T05:25:47.369Z,5.00
2022-12-03T05:28:14.250Z,5.00
2022-12-03T05:30:41.029Z,4.20
2022-12-03T05:33:07.808Z,4.20
2022-12-03T05:35:34.493Z,4.70
2022-12-03T05:38:01.252Z,4.50
2022-12-03T05:40:27.913Z,4.90
2022-12-03T05:42:54.658Z,4.40
2022-12-03T05:45:25.489Z,4.40
2022-12-03T05:47:56.542Z,4.00
2022-12-03T05:50:24.740Z,3.90
2022-12-03T05:52:51.855Z,4.00
2022-12-03T05:55:18.990Z,3.80
2022-12-03T05:57:46.120Z,3.90
2022-12-03T06:00:15.248Z,3.80
2022-12-03T06:02:42.737Z,3.80
2022-12-03T06:05:10.900Z,3.50
2022-12-03T06:07:37.676Z,3.50
2022-12-03T06:10:06.215Z,3.20
2022-12-03T06:12:32.942Z,2.90
2022-12-03T06:14:59.666Z,3.40
2022-12-03T06:17:26.610Z,4.00
2022-12-03T06:19:53.477Z,4.00
2022-12-03T06:22:20.258Z,4.20
2022-12-03T06:24:47.276Z,4.10
2022-12-03T06:27:14.016Z,4.40
2022-12-03T06:29:40.699Z,4.50
2022-12-03T06:32:07.521Z,4.00
2022-12-03T06:34:34.841Z,4.00
2022-12-03T06:37:01.522Z,4.10
2022-12-03T06:39:28.206Z,3.80
2022-12-03T06:41:54.879Z,4.00
2022-12-03T06:44:21.535Z,4.20
2022-12-03T06:46:48.250Z,4.20
2022-12-03T06:49:14.954Z,3.30
2022-12-03T06:51:41.620Z,3.00
2022-12-03T06:54:09.087Z,2.70
2022-12-03T06:56:40.390Z,2.90
2022-12-03T06:59:11.505Z,3.80
2022-12-03T07:01:38.267Z,3.90
2022-12-03T07:04:05.239Z,3.90
2022-12-03T07:06:31.902Z,4.10
2022-12-03T07:08:58.634Z,3.70
2022-12-03T07:11:31.343Z,4.10
2022-12-03T07:14:04.670Z,4.40
2022-12-03T07:16:33.036Z,4.20
2022-12-03T07:18:59.831Z,4.30
2022-12-03T07:21:26.486Z,4.30
2022-12-03T07:23:53.147Z,4.50
2022-12-03T07:26:19.884Z,4.20
2022-12-03T07:28:48.121Z,4.40
2022-12-03T07:31:15.138Z,4.50
2022-12-03T07:33:42.185Z,4.60
2022-12-03T07:36:09.599Z,4.70
2022-12-03T07:38:36.595Z,4.50
2022-12-03T07:41:03.603Z,4.60
2022-12-03T07:43:30.271Z,4.60
2022-12-03T07:45:56.963Z,4.70
2022-12-03T07:48:23.688Z,4.40
2022-12-03T07:50:50.353Z,4.30
2022-12-03T07:53:17.077Z,4.40
2022-12-03T07:55:43.747Z,4.60
2022-12-03T07:58:10.486Z,4.60
2022-12-03T08:00:37.238Z,4.30
2022-12-03T08:03:03.996Z,4.50
2022-12-03T08:05:30.732Z,4.70
2022-12-03T08:07:57.473Z,4.40
2022-12-03T08:10:25.425Z,3.60
2022-12-03T08:12:53.601Z,3.50
2022-12-03T08:15:24.188Z,3.70
2022-12-03T08:17:54.768Z,4.20
2022-12-03T08:20:23.545Z,4.40
2022-12-03T08:22:51.851Z,4.20
2022-12-03T08:25:21.343Z,4.20
2022-12-03T08:27:48.030Z,4.30
2022-12-03T08:30:16.051Z,3.80
2022-12-03T08:32:43.537Z,4.10
2022-12-03T08:35:24.942Z,4.30
2022-12-03T08:37:58.659Z,4.70
2022-12-03T08:40:35.232Z,4.60
2022-12-03T08:43:01.987Z,4.20
2022-12-03T08:45:44.116Z,4.40
2022-12-03T08:48:32.787Z,4.00
2022-12-03T08:51:21.769Z,4.80
2022-12-03T08:53:50.654Z,5.00
2022-12-03T08:56:30.900Z,4.80
2022-12-03T08:59:06.438Z,4.50
2022-12-03T09:01:42.613Z,4.50
2022-12-03T09:04:28.412Z,4.50
2022-12-03T09:06:55.994Z,4.50
2022-12-03T09:09:23.326Z,4.80
2022-12-03T09:11:50.999Z,4.90
2022-12-03T09:14:18.883Z,5.00
2022-12-03T09:16:45.894Z,4.70
2022-12-03T09:19:12.653Z,5.00
2022-12-03T09:21:39.310Z,4.90
2022-12-03T09:24:06.177Z,5.30
2022-12-03T09:26:32.841Z,5.40
2022-12-03T09:28:59.528Z,5.50
2022-12-03T09:31:26.223Z,5.50
2022-12-03T09:33:53.015Z,5.40
2022-12-03T09:36:19.687Z,5.10
2022-12-03T09:38:48.268Z,5.20
2022-12-03T09:41:15.088Z,5.10
2022-12-03T09:46:29.308Z,5.30
2022-12-03T09:48:56.637Z,4.50
2022-12-03T09:51:26.313Z,5.10
2022-12-03T09:53:52.980Z,4.70
2022-12-03T09:56:22.207Z,5.00
2022-12-03T09:58:49.681Z,5.20
2022-12-03T10:01:17.303Z,5.60
2022-12-03T10:03:46.648Z,5.90
2022-12-03T10:06:17.395Z,5.60
2022-12-03T10:08:48.808Z,5.70
2022-12-03T10:11:16.553Z,5.70
2022-12-03T10:13:43.612Z,5.90
2022-12-03T10:16:12.419Z,5.90
2022-12-03T10:18:42.690Z,5.80
2022-12-03T10:21:18.467Z,6.20
2022-12-03T10:23:48.451Z,6.10
2022-12-03T10:26:18.861Z,6.00
2022-12-03T10:28:47.478Z,5.80
2022-12-03T10:31:15.024Z,5.80
2022-12-03T10:33:44.791Z,6.10
2022-12-03T10:36:17.001Z,5.70
2022-12-03T10:38:44.291Z,6.00
2022-12-03T10:41:26.065Z,6.20
2022-12-03T10:43:53.037Z,6.00
2022-12-03T10:46:21.941Z,5.90
2022-12-03T10:49:09.815Z,6.00
2022-12-03T10:51:38.038Z,6.20
2022-12-03T10:54:19.640Z,6.50
2022-12-03T10:56:47.641Z,6.80
2022-12-03T10:59:17.185Z,7.00
2022-12-03T11:01:44.428Z,6.70
2022-12-03T11:04:19.225Z,6.60
2022-12-03T11:06:45.879Z,6.50
2022-12-03T11:09:18.078Z,6.80
2022-12-03T11:11:44.811Z,7.00
2022-12-03T11:14:11.912Z,7.10
2022-12-03T11:16:41.604Z,7.00
2022-12-03T11:19:14.147Z,7.00
2022-12-03T11:22:06.808Z,7.20
2022-12-03T11:24:35.198Z,7.20
2022-12-03T11:27:01.778Z,7.20
2022-12-03T11:29:54.514Z,7.60
2022-12-03T11:32:42.402Z,7.90
2022-12-03T11:35:12.957Z,7.40
2022-12-03T11:37:39.709Z,7.30
2022-12-03T11:40:18.602Z,7.30
2022-12-03T11:42:47.086Z,7.00
2022-12-03T11:45:17.669Z,6.90
2022-12-03T11:48:07.022Z,6.70
2022-12-03T11:50:40.537Z,7.30
2022-12-03T11:53:10.406Z,6.80
2022-12-03T11:55:39.147Z,7.20
2022-12-03T11:58:16.119Z,7.20
2022-12-03T12:00:51.496Z,7.00
2022-12-03T12:03:28.633Z,7.60
2022-12-03T12:06:13.019Z,7.90
2022-12-03T12:08:59.994Z,7.30
2022-12-03T12:11:35.216Z,7.50
2022-12-03T12:14:07.281Z,7.10
2022-12-03T12:16:40.963Z,7.30
2022-12-03T12:19:52.694Z,7.30
2022-12-03T12:22:26.667Z,7.50
2022-12-03T12:25:01.316Z,7.50
2022-12-03T12:27:45.126Z,7.20
2022-12-03T12:30:17.038Z,6.80
2022-12-03T12:32:49.135Z,6.60
2022-12-03T12:35:29.882Z,6.60
2022-12-03T12:38:02.575Z,5.60
2022-12-03T12:40:32.196Z,5.60
2022-12-03T12:42:59.930Z,6.50
2022-12-03T12:45:38.324Z,5.60
2022-12-03T12:48:08.075Z,6.00
2022-12-03T12:50:35.390Z,6.20
2022-12-03T12:53:22.206Z,6.60
2022-12-03T12:55:49.743Z,6.30
2022-12-03T12:58:19.409Z,6.20
2022-12-03T13:00:50.545Z,5.80
2022-12-03T13:03:19.238Z,6.10
2022-12-03T13:05:48.173Z,6.40
2022-12-03T13:08:38.278Z,6.60
2022-12-03T13:11:05.085Z,6.30
2022-12-03T13:13:44.240Z,5.80
2022-12-03T13:16:26.580Z,6.30
2022-12-03T13:18:54.854Z,6.80
2022-12-03T13:21:23.303Z,6.90
2022-12-03T13:23:55.033Z,7.00
2022-12-03T13:26:39.522Z,6.60
2022-12-03T13:32:40.767Z,6.90
2022-12-03T13:35:25.612Z,7.20
2022-12-03T13:37:52.391Z,6.80
2022-12-03T13:40:30.766Z,6.70
2022-12-03T13:42:58.113Z,7.00
2022-12-03T13:45:36.422Z,7.20
2022-12-03T13:48:15.573Z,7.20
2022-12-03T13:50:45.012Z,6.80
2022-12-03T13:53:11.619Z,6.60
2022-12-03T13:55:40.014Z,7.00
2022-12-03T13:58:06.670Z,6.30
2022-12-03T14:00:33.348Z,7.00
2022-12-03T14:03:00.088Z,6.60
2022-12-03T14:05:26.783Z,6.60
2022-12-03T14:07:53.517Z,6.80
2022-12-03T14:10:20.278Z,6.60
2022-12-03T14:12:46.929Z,6.80
2022-12-03T14:15:13.717Z,6.90
2022-12-03T14:17:40.479Z,7.10
2022-12-03T14:20:08.081Z,6.50
2022-12-03T14:22:37.858Z,7.10
2022-12-03T14:25:06.316Z,7.20
2022-12-03T14:27:33.338Z,7.00
2022-12-03T14:30:00.108Z,6.30
2022-12-03T14:32:26.798Z,6.60
2022-12-03T14:34:53.578Z,6.80
2022-12-03T14:37:20.527Z,6.20
2022-12-03T14:39:47.243Z,5.50
2022-12-03T14:42:13.889Z,5.90
2022-12-03T14:44:49.146Z,5.90
2022-12-03T14:47:17.820Z,5.90
2022-12-03T14:49:44.579Z,6.00
2022-12-03T14:52:12.677Z,6.20
2022-12-03T14:54:42.037Z,6.40
2022-12-03T14:57:11.230Z,6.80
2022-12-03T14:59:38.322Z,6.90
2022-12-03T15:02:05.021Z,6.60
2022-12-03T15:04:31.712Z,5.90
2022-12-03T15:06:58.376Z,5.50
2022-12-03T15:09:25.040Z,5.40
2022-12-03T15:11:51.681Z,5.90
2022-12-03T15:14:18.354Z,5.70
2022-12-03T15:16:45.056Z,5.80
2022-12-03T15:19:11.764Z,5.40
2022-12-03T15:21:38.445Z,5.60
2022-12-03T15:24:05.385Z,5.40
2022-12-03T15:26:32.028Z,5.90
2022-12-03T15:28:58.717Z,6.00
2022-12-03T15:31:25.409Z,5.80
2022-12-03T15:33:52.141Z,5.70
2022-12-03T15:36:18.829Z,5.80
2022-12-03T15:38:45.551Z,5.50
2022-12-03T15:41:21.481Z,5.50
2022-12-03T15:43:48.818Z,5.70
2022-12-03T15:46:15.774Z,5.90
2022-12-03T15:48:42.908Z,6.10
2022-12-03T15:51:09.780Z,5.80
2022-12-03T15:53:36.632Z,6.00
2022-12-03T15:56:03.460Z,6.00
2022-12-03T15:58:30.125Z,6.10
2022-12-03T16:00:56.795Z,6.40
2022-12-03T16:03:23.580Z,6.20
2022-12-03T16:05:50.344Z,6.00
2022-12-03T16:08:17.105Z,6.20
2022-12-03T16:10:43.806Z,6.20
2022-12-03T16:13:10.538Z,5.90
2022-12-03T16:15:37.258Z,6.30
2022-12-03T16:18:04.201Z,6.40
2022-12-03T16:20:30.889Z,6.20
2022-12-03T16:22:57.543Z,5.80
2022-12-03T16:25:24.232Z,5.50
2022-12-03T16:27:50.948Z,5.10
2022-12-03T16:30:17.686Z,5.40
2022-12-03T16:32:44.410Z,4.70
2022-12-03T16:35:11.069Z,5.10
2022-12-03T16:37:37.741Z,5.10
2022-12-03T16:40:04.897Z,4.90
2022-12-03T16:42:31.612Z,4.70
2022-12-03T16:45:00.830Z,5.00
2022-12-03T16:47:33.364Z,4.90
2022-12-03T16:50:30.155Z,4.90
2022-12-03T16:52:57.671Z,5.10
2022-12-03T16:55:24.580Z,4.80
2022-12-03T16:57:51.239Z,4.70
2022-12-03T17:00:18.141Z,4.70
2022-12-03T17:02:44.912Z,4.80
2022-12-03T17:05:11.629Z,4.90
2022-12-03T17:07:38.330Z,5.00
2022-12-03T17:10:06.002Z,4.80
2022-12-03T17:12:54.133Z,4.70
2022-12-03T17:15:19.306Z,4.30
2022-12-03T17:17:46.059Z,4.80
2022-12-03T17:20:14.552Z,5.20
2022-12-03T17:22:41.594Z,5.30
2022-12-03T17:25:09.043Z,5.10
2022-12-03T17:27:39.657Z,5.00
2022-12-03T17:30:10.990Z,5.00
2022-12-03T17:32:37.702Z,4.90
2022-12-03T17:35:04.719Z,5.00
2022-12-03T17:37:31.390Z,5.40
2022-12-03T17:39:58.062Z,4.70
2022-12-03T17:42:24.776Z,4.70
2022-12-03T17:44:51.548Z,4.60
2022-12-03T17:47:18.216Z,4.70
2022-12-03T17:49:44.934Z,4.60
2022-12-03T17:52:11.597Z,4.50
2022-12-03T17:55:08.476Z,4.20
2022-12-03T17:57:24.971Z,4.80
2022-12-03T17:59:52.223Z,4.60
2022-12-03T18:02:19.257Z,5.00
2022-12-03T18:04:45.969Z,4.50
2022-12-03T18:07:12.627Z,4.30
2022-12-03T18:09:39.308Z,4.50
2022-12-03T18:12:06.294Z,4.70
2022-12-03T18:14:32.966Z,4.50
2022-12-03T18:16:59.619Z,4.90
2022-12-03T18:19:26.285Z,4.80
2022-12-03T18:21:53.718Z,4.50
2022-12-03T18:24:20.704Z,4.30
2022-12-03T18:26:47.377Z,4.80
2022-12-03T18:29:14.046Z,4.60
2022-12-03T18:31:40.731Z,5.00
2022-12-03T18:34:07.411Z,5.00
2022-12-03T18:36:35.998Z,4.80
2022-12-03T18:39:04.622Z,4.60
2022-12-03T18:41:32.946Z,4.60
2022-12-03T18:43:59.610Z,4.70
2022-12-03T18:46:51.765Z,4.60
2022-12-03T18:49:12.926Z,4.70
2022-12-03T18:51:39.624Z,5.10
2022-12-03T18:54:12.450Z,5.10
2022-12-03T18:56:42.527Z,5.50
2022-12-03T18:59:09.349Z,5.50
2022-12-03T19:01:36.178Z,5.50
2022-12-03T19:04:03.378Z,5.30
2022-12-03T19:06:30.448Z,4.80
2022-12-03T19:08:57.532Z,5.10
2022-12-03T19:11:24.304Z,5.20
2022-12-03T19:13:51.730Z,5.40
2022-12-03T19:16:18.789Z,5.30
2022-12-03T19:18:45.596Z,5.50
2022-12-03T19:21:15.142Z,5.50
2022-12-03T19:23:47.294Z,5.70
2022-12-03T19:26:25.782Z,5.70
2022-12-03T19:28:53.779Z,5.70
2022-12-03T19:31:20.577Z,5.50
2022-12-03T19:33:47.433Z,5.70
2022-12-03T19:36:25.264Z,5.60
2022-12-03T19:38:56.886Z,5.80
2022-12-03T19:41:27.257Z,5.90
2022-12-03T19:43:55.299Z,5.90
2022-12-03T19:46:23.687Z,5.70
2022-12-03T19:49:14.670Z,5.60
2022-12-03T19:51:54.320Z,5.70
2022-12-03T19:57:54.658Z,5.30
2022-12-03T20:00:29.318Z,5.20
2022-12-03T20:03:10.344Z,5.30
2022-12-03T20:06:05.896Z,5.10
2022-12-03T20:08:46.951Z,5.20
2022-12-03T20:11:16.431Z,5.20
2022-12-03T20:13:44.061Z,5.40
2022-12-03T20:16:12.621Z,5.30
2022-12-03T20:18:40.755Z,5.50
2022-12-03T20:21:08.256Z,5.40
2022-12-03T20:23:34.913Z,5.50
2022-12-03T20:26:01.748Z,5.50
2022-12-03T20:28:29.171Z,5.70
2022-12-03T20:31:03.505Z,5.10
2022-12-03T20:33:30.194Z,4.80
2022-12-03T20:35:57.060Z,5.00
2022-12-03T20:38:24.618Z,5.30
2022-12-03T20:40:51.281Z,5.30
2022-12-03T20:43:17.956Z,5.30
2022-12-03T20:45:45.166Z,5.50
2022-12-03T20:48:12.390Z,5.40
2022-12-03T20:50:39.679Z,4.90
2022-12-03T20:53:24.255Z,4.80
2022-12-03T20:55:58.993Z,4.90
2022-12-03T20:58:25.794Z,5.00
2022-12-03T21:00:52.586Z,4.90
2022-12-03T21:03:19.390Z,5.10
2022-12-03T21:05:46.094Z,5.00
2022-12-03T21:08:12.886Z,5.10
2022-12-03T21:10:47.134Z,5.40
2022-12-03T21:13:15.348Z,5.70
2022-12-03T21:15:42.626Z,5.40
2022-12-03T21:18:11.358Z,5.40
2022-12-03T21:20:45.727Z,5.40
2022-12-03T21:23:12.879Z,5.30
2022-12-03T21:25:40.272Z,5.40
2022-12-03T21:28:09.052Z,5.60
2022-12-03T21:30:39.865Z,5.20
2022-12-03T21:33:07.149Z,5.30
2022-12-03T21:35:36.866Z,5.30
2022-12-03T21:38:03.739Z,5.30
2022-12-03T21:40:30.512Z,5.10
2022-12-03T21:42:57.308Z,5.40
2022-12-03T21:45:24.961Z,5.40
2022-12-03T21:47:51.659Z,5.20
2022-12-03T21:50:18.505Z,5.30
2022-12-03T21:52:45.222Z,5.40
2022-12-03T21:55:46.104Z,5.10
2022-12-03T21:58:28.968Z,5.20
2022-12-03T22:00:55.685Z,5.40
2022-12-03T22:03:22.348Z,5.30
2022-12-03T22:05:49.903Z,5.20
2022-12-03T22:08:16.967Z,5.20
2022-12-03T22:10:43.803Z,5.40
2022-12-03T22:13:10.510Z,5.40
2022-12-03T22:15:40.329Z,5.10
2022-12-03T22:18:07.166Z,5.00
2022-12-03T22:20:33.861Z,4.90
2022-12-03T22:23:00.522Z,4.90
2022-12-03T22:25:27.248Z,5.00
2022-12-03T22:27:53.902Z,4.80
2022-12-03T22:30:20.587Z,4.40
2022-12-03T22:32:47.242Z,4.70
2022-12-03T22:35:13.930Z,4.90
2022-12-03T22:37:40.596Z,5.00
2022-12-03T22:40:07.610Z,5.10
2022-12-03T22:42:34.260Z,5.20
2022-12-03T22:45:00.921Z,5.20
2022-12-03T22:47:27.573Z,4.90
2022-12-03T22:49:54.427Z,5.20
2022-12-03T22:52:21.173Z,5.30
2022-12-03T22:54:47.886Z,5.10
2022-12-03T22:57:14.546Z,5.30
2022-12-03T22:59:41.262Z,5.10
2022-12-03T23:02:07.932Z,5.10
2022-12-03T23:04:34.606Z,5.20
2022-12-03T23:07:01.261Z,5.10
2022-12-03T23:09:27.946Z,5.20
2022-12-03T23:11:54.680Z,5.40
2022-12-03T23:14:21.627Z,5.50
2022-12-03T23:16:48.329Z,5.30
2022-12-03T23:19:15.258Z,5.00
2022-12-03T23:21:41.904Z,5.10
2022-12-03T23:24:08.556Z,5.40
2022-12-03T23:26:36.861Z,5.30
2022-12-03T23:29:05.219Z,5.10
2022-12-03T23:31:32.650Z,4.70
2022-12-03T23:34:00.301Z,4.70
2022-12-03T23:36:28.570Z,4.20
2022-12-03T23:38:55.396Z,4.60
2022-12-03T23:41:22.860Z,4.70
2022-12-03T23:43:49.779Z,4.70
2022-12-03T23:46:20.115Z,4.70
2022-12-03T23:48:46.867Z,4.80
2022-12-03T23:51:16.355Z,4.70
2022-12-03T23:53:43.565Z,4.60
2022-12-03T23:56:19.490Z,4.40
2022-12-03T23:58:46.588Z,4.50
